createdAt,value
2022-11-17T00:00:30.636Z,64.07
2022-11-17T00:05:36.129Z,76.72
2022-11-17T00:10:40.943Z,65.30
2022-11-17T00:15:45.638Z,74.32
2022-11-17T00:21:06.164Z,81.28
2022-11-17T00:26:11.047Z,67.47
2022-11-17T00:31:34.651Z,79.70
2022-11-17T00:36:40.443Z,84.53
2022-11-17T00:41:45.264Z,77.90
2022-11-17T00:46:48.608Z,77.05
2022-11-17T00:51:52.325Z,69.90
2022-11-17T00:56:57.257Z,62.42
2022-11-17T01:02:00.605Z,58.30
2022-11-17T01:07:04.019Z,55.22
2022-11-17T01:12:09.140Z,55.13
2022-11-17T01:17:12.429Z,53.65
2022-11-17T01:22:15.677Z,47.13
2022-11-17T01:27:20.304Z,62.17
2022-11-17T01:32:23.572Z,62.80
2022-11-17T01:37:27.914Z,68.07
2022-11-17T01:42:32.589Z,64.32
2022-11-17T01:47:45.641Z,66.30
2022-11-17T01:52:51.571Z,66.07
2022-11-17T01:57:59.887Z,75.53
2022-11-17T02:03:07.114Z,75.13
2022-11-17T02:08:11.287Z,72.88
2022-11-17T02:13:16.406Z,69.63
2022-11-17T02:18:20.099Z,73.72
2022-11-17T02:23:55.741Z,83.68
2022-11-17T02:29:11.191Z,95.53
2022-11-17T02:34:26.249Z,88.68
2022-11-17T02:39:34.812Z,116.75
2022-11-17T02:44:46.193Z,109.60
2022-11-17T02:49:54.874Z,128.07
2022-11-17T02:55:01.312Z,105.45
2022-11-17T03:00:08.778Z,155.63
2022-11-17T03:05:18.241Z,163.27
2022-11-17T03:10:26.732Z,184.85
2022-11-17T03:15:43.948Z,250.85
2022-11-17T03:20:53.999Z,169.35
2022-11-17T03:26:00.124Z,159.10
2022-11-17T03:31:09.433Z,135.05
2022-11-17T03:36:15.927Z,183.40
2022-11-17T03:41:20.832Z,167.10
2022-11-17T03:46:27.664Z,173.63
2022-11-17T03:51:33.958Z,163.65
2022-11-17T03:56:48.175Z,105.82
2022-11-17T04:01:53.325Z,146.30
2022-11-17T04:06:56.731Z,85.88
2022-11-17T04:12:17.279Z,102.68
2022-11-17T04:17:21.956Z,158.77
2022-11-17T04:22:25.217Z,164.00
2022-11-17T04:27:45.743Z,137.60
2022-11-17T04:32:50.412Z,205.67
2022-11-17T04:37:53.673Z,172.35
2022-11-17T04:42:56.954Z,164.02
2022-11-17T04:48:01.643Z,190.68
2022-11-17T04:53:04.923Z,177.98
2022-11-17T04:58:08.191Z,110.10
2022-11-17T05:03:13.734Z,120.22
2022-11-17T05:08:17.160Z,246.90
2022-11-17T05:13:25.094Z,188.73
2022-11-17T05:18:29.885Z,179.07
2022-11-17T05:23:50.860Z,170.85
2022-11-17T05:28:56.092Z,114.55
2022-11-17T05:34:01.513Z,152.70
2022-11-17T05:39:05.938Z,101.20
2022-11-17T05:44:09.292Z,115.57
2022-11-17T05:49:14.058Z,137.40
2022-11-17T05:54:17.325Z,190.25
2022-11-17T05:59:28.080Z,172.48
2022-11-17T06:04:33.673Z,195.02
2022-11-17T06:09:39.749Z,148.02
2022-11-17T06:14:43.074Z,199.20
2022-11-17T06:19:52.428Z,84.32
2022-11-17T06:24:56.631Z,125.97
2022-11-17T06:30:01.718Z,196.10
2022-11-17T06:35:08.863Z,123.63
2022-11-17T06:40:13.501Z,154.60
2022-11-17T06:45:16.946Z,180.35
2022-11-17T06:50:21.621Z,69.32
2022-11-17T06:55:24.939Z,178.27
2022-11-17T07:00:28.525Z,157.73
2022-11-17T07:05:34.360Z,76.53
2022-11-17T07:10:38.032Z,62.17
2022-11-17T07:15:41.344Z,106.37
2022-11-17T07:20:46.087Z,137.95
2022-11-17T07:25:49.351Z,56.63
2022-11-17T07:30:52.793Z,117.17
2022-11-17T07:35:57.763Z,101.88
2022-11-17T07:41:01.306Z,145.97
2022-11-17T07:46:06.496Z,214.30
2022-11-17T07:51:12.408Z,173.23
2022-11-17T07:56:16.000Z,94.35
2022-11-17T08:01:19.400Z,42.75
2022-11-17T08:06:25.006Z,48.92
2022-11-17T08:11:28.679Z,58.45
2022-11-17T08:16:32.204Z,90.07
2022-11-17T08:21:38.369Z,48.38
2022-11-17T08:26:41.697Z,72.88
2022-11-17T08:31:46.338Z,48.95
2022-11-17T08:36:51.118Z,56.63
2022-11-17T08:41:54.383Z,62.53
2022-11-17T08:46:57.614Z,48.63
2022-11-17T08:52:02.272Z,46.33
2022-11-17T08:57:05.621Z,47.17
2022-11-17T09:02:08.948Z,35.80
2022-11-17T09:07:13.625Z,37.22
2022-11-17T09:12:17.940Z,47.95
2022-11-17T09:17:21.193Z,41.40
2022-11-17T09:22:25.851Z,37.70
2022-11-17T09:27:29.093Z,36.93
2022-11-17T09:32:36.591Z,40.07
2022-11-17T09:37:41.212Z,37.35
2022-11-17T09:42:45.205Z,31.65
2022-11-17T09:48:06.968Z,29.05
2022-11-17T09:53:26.505Z,20.90
2022-11-17T09:58:35.831Z,19.05
2022-11-17T10:03:45.511Z,16.02
2022-11-17T10:09:00.406Z,14.35
2022-11-17T10:14:11.966Z,14.88
2022-11-17T10:19:18.192Z,16.53
2022-11-17T10:24:40.885Z,14.10
2022-11-17T10:29:57.937Z,11.73
2022-11-17T10:35:15.451Z,10.98
2022-11-17T10:40:25.350Z,11.70
2022-11-17T10:45:29.831Z,13.27
2022-11-17T10:50:33.189Z,11.50
2022-11-17T10:55:45.062Z,11.88
2022-11-17T11:00:54.446Z,13.53
2022-11-17T11:06:00.252Z,14.50
2022-11-17T11:11:10.005Z,14.25
2022-11-17T11:16:13.368Z,12.87
2022-11-17T11:21:27.634Z,11.45
2022-11-17T11:26:45.658Z,12.03
2022-11-17T11:32:01.931Z,12.77
2022-11-17T11:37:10.682Z,12.40
2022-11-17T11:42:45.202Z,11.30
2022-11-17T11:48:09.994Z,10.88
2022-11-17T11:53:20.003Z,8.50
2022-11-17T11:58:26.060Z,5.90
2022-11-17T12:03:35.195Z,6.95
2022-11-17T12:08:47.266Z,6.53
2022-11-17T12:13:54.483Z,4.80
2022-11-17T12:18:58.413Z,5.03
2022-11-17T12:24:14.205Z,7.57
2022-11-17T12:29:33.988Z,5.63
2022-11-17T12:34:37.977Z,5.40
2022-11-17T12:40:02.129Z,5.10
2022-11-17T12:45:12.271Z,4.13
2022-11-17T12:50:49.805Z,4.90
2022-11-17T12:56:26.478Z,3.15
2022-11-17T13:01:41.671Z,3.70
2022-11-17T13:07:00.903Z,5.38
2022-11-17T13:12:05.833Z,10.43
2022-11-17T13:17:13.474Z,8.70
2022-11-17T13:22:18.821Z,11.48
2022-11-17T13:27:24.669Z,2.47
2022-11-17T13:32:29.528Z,3.15
2022-11-17T13:37:33.013Z,4.53
2022-11-17T13:42:36.881Z,9.55
2022-11-17T13:47:47.363Z,4.20
2022-11-17T13:52:55.577Z,8.23
2022-11-17T13:58:01.780Z,6.05
2022-11-17T14:03:27.523Z,5.30
2022-11-17T14:08:33.353Z,16.10
2022-11-17T14:13:40.755Z,11.63
2022-11-17T14:18:55.660Z,4.70
2022-11-17T14:24:05.421Z,3.63
2022-11-17T14:29:12.485Z,4.10
2022-11-17T14:34:17.672Z,5.13
2022-11-17T14:39:21.157Z,5.53
2022-11-17T14:44:24.740Z,6.13
2022-11-17T14:49:29.480Z,7.75
2022-11-17T14:54:32.760Z,8.45
2022-11-17T14:59:36.077Z,9.02
2022-11-17T15:04:50.462Z,8.27
2022-11-17T15:09:54.893Z,15.90
2022-11-17T15:14:58.322Z,13.13
2022-11-17T15:20:03.087Z,19.50
2022-11-17T15:25:08.045Z,22.52
2022-11-17T15:30:12.254Z,30.02
2022-11-17T15:35:16.995Z,32.72
2022-11-17T15:40:20.616Z,30.92
2022-11-17T15:45:23.947Z,28.40
2022-11-17T15:50:28.678Z,32.70
2022-11-17T15:55:31.919Z,34.28
2022-11-17T16:00:35.482Z,32.70
2022-11-17T16:05:40.201Z,34.73
2022-11-17T16:10:43.464Z,40.45
2022-11-17T16:15:49.686Z,44.42
2022-11-17T16:20:57.876Z,45.03
2022-11-17T16:26:03.783Z,41.70
2022-11-17T16:31:18.035Z,44.40
2022-11-17T16:36:25.799Z,53.43
2022-11-17T16:41:32.111Z,55.03
2022-11-17T16:46:35.595Z,63.30
2022-11-17T16:51:40.940Z,101.87
2022-11-17T16:56:44.283Z,179.53
2022-11-17T17:01:49.776Z,200.60
2022-11-17T17:06:54.499Z,128.40
2022-11-17T17:12:01.355Z,153.73
2022-11-17T17:17:06.150Z,115.03
2022-11-17T17:22:11.379Z,111.37
2022-11-17T17:27:14.686Z,121.85
2022-11-17T17:32:18.003Z,100.13
2022-11-17T17:37:22.667Z,92.93
2022-11-17T17:42:25.993Z,83.47
2022-11-17T17:47:29.245Z,68.97
2022-11-17T17:52:34.169Z,107.53
2022-11-17T17:57:37.942Z,88.75
2022-11-17T18:02:41.854Z,75.85
2022-11-17T18:07:46.636Z,85.25
2022-11-17T18:12:49.997Z,95.63
2022-11-17T18:17:53.245Z,104.00
2022-11-17T18:22:58.050Z,88.17
2022-11-17T18:28:01.324Z,84.20
2022-11-17T18:33:04.632Z,97.78
2022-11-17T18:38:09.348Z,110.27
2022-11-17T18:43:12.627Z,103.97
2022-11-17T18:48:15.936Z,85.40
2022-11-17T18:53:20.587Z,102.28
2022-11-17T18:58:23.868Z,114.05
2022-11-17T19:03:27.187Z,143.45
2022-11-17T19:08:32.293Z,86.63
2022-11-17T19:13:36.859Z,94.53
2022-11-17T19:18:40.305Z,112.90
2022-11-17T19:23:51.417Z,130.90
2022-11-17T19:28:56.795Z,135.85
2022-11-17T19:34:00.655Z,215.10
2022-11-17T19:39:05.471Z,151.43
2022-11-17T19:44:10.442Z,176.07
2022-11-17T19:49:14.447Z,144.83
2022-11-17T19:54:19.417Z,172.47
2022-11-17T19:59:23.041Z,150.52
2022-11-17T20:04:26.413Z,128.27
2022-11-17T20:09:31.248Z,157.50
2022-11-17T20:14:34.522Z,193.75
2022-11-17T20:19:37.851Z,230.20
2022-11-17T20:24:42.519Z,199.17
2022-11-17T20:29:45.829Z,233.88
2022-11-17T20:34:49.108Z,145.18
2022-11-17T20:39:53.760Z,162.07
2022-11-17T20:44:57.103Z,241.50
2022-11-17T20:50:00.551Z,111.18
2022-11-17T20:55:06.132Z,228.32
2022-11-17T21:00:10.946Z,248.03
2022-11-17T21:05:14.398Z,195.88
2022-11-17T21:10:19.363Z,226.17
2022-11-17T21:15:22.642Z,180.73
2022-11-17T21:20:28.170Z,198.15
2022-11-17T21:25:32.885Z,158.50
2022-11-17T21:30:36.224Z,162.32
2022-11-17T21:35:39.679Z,188.57
2022-11-17T21:40:45.232Z,163.57
2022-11-17T21:45:48.609Z,149.65
2022-11-17T21:50:52.008Z,119.15
2022-11-17T21:56:01.541Z,116.57
2022-11-17T22:01:08.786Z,110.38
2022-11-17T22:06:14.609Z,208.83
2022-11-17T22:11:35.270Z,112.57
2022-11-17T22:16:40.828Z,109.80
2022-11-17T22:21:44.847Z,90.47
2022-11-17T22:26:51.615Z,79.03
2022-11-17T22:31:54.932Z,73.53
2022-11-17T22:36:58.200Z,82.72
2022-11-17T22:42:02.926Z,71.07
2022-11-17T22:47:06.423Z,120.37
2022-11-17T22:52:12.160Z,105.28
2022-11-17T22:57:16.799Z,93.57
2022-11-17T23:02:20.040Z,164.40
2022-11-17T23:07:23.391Z,71.43
2022-11-17T23:12:28.126Z,78.85
2022-11-17T23:17:31.464Z,138.63
2022-11-17T23:22:35.963Z,108.30
2022-11-17T23:27:40.674Z,97.85
2022-11-17T23:32:44.026Z,215.85
2022-11-17T23:37:47.336Z,143.33
2022-11-17T23:42:54.241Z,141.23
2022-11-17T23:47:57.523Z,190.50
2022-11-17T23:53:00.836Z,122.47
2022-11-17T23:58:06.023Z,73.78
